createdAt,value
2023-11-08T00:04:38.013Z,6.14
2023-11-08T00:09:39.805Z,6.13
2023-11-08T00:14:41.435Z,6.12
2023-11-08T00:19:43.349Z,6.11
2023-11-08T00:24:45.115Z,6.11
2023-11-08T00:29:47.899Z,6.10
2023-11-08T00:34:50.380Z,6.09
2023-11-08T00:39:52.090Z,6.06
2023-11-08T00:44:53.668Z,6.03
2023-11-08T00:49:55.197Z,6.03
2023-11-08T00:54:56.722Z,5.98
2023-11-08T00:59:58.674Z,5.93
2023-11-08T01:05:00.362Z,5.87
2023-11-08T01:10:01.947Z,5.81
2023-11-08T01:15:05.083Z,5.76
2023-11-08T01:20:07.992Z,5.71
2023-11-08T01:25:10.346Z,5.65
2023-11-08T01:30:13.420Z,5.63
2023-11-08T01:35:16.078Z,5.63
2023-11-08T01:40:19.630Z,5.66
2023-11-08T01:45:21.426Z,5.69
2023-11-08T01:50:23.203Z,5.75
2023-11-08T01:55:24.860Z,5.80
2023-11-08T02:00:29.765Z,5.82
2023-11-08T02:05:31.349Z,5.83
2023-11-08T02:10:32.910Z,5.86
2023-11-08T02:15:42.964Z,5.92
2023-11-08T02:20:45.422Z,5.94
2023-11-08T02:25:48.070Z,5.95
2023-11-08T02:30:55.506Z,5.97
2023-11-08T02:35:59.961Z,5.98
2023-11-08T02:41:01.835Z,5.97
2023-11-08T02:46:03.639Z,5.93
2023-11-08T02:51:07.386Z,5.91
2023-11-08T02:56:10.128Z,5.86
2023-11-08T03:01:12.098Z,5.82
2023-11-08T03:06:13.688Z,5.74
2023-11-08T03:11:15.336Z,5.66
2023-11-08T03:16:17.747Z,5.62
2023-11-08T03:21:19.439Z,5.58
2023-11-08T03:26:21.670Z,5.58
2023-11-08T03:31:23.259Z,5.59
2023-11-08T03:36:30.267Z,5.64
2023-11-08T03:41:33.366Z,5.68
2023-11-08T03:46:35.626Z,5.73
2023-11-08T03:51:37.233Z,5.79
2023-11-08T03:56:39.490Z,5.84
2023-11-08T04:01:41.061Z,5.90
2023-11-08T04:06:43.651Z,5.92
2023-11-08T04:11:45.304Z,5.95
2023-11-08T04:16:46.834Z,5.96
2023-11-08T04:21:49.625Z,5.97
2023-11-08T04:26:53.232Z,5.99
2023-11-08T04:31:54.745Z,6.00
2023-11-08T04:36:56.383Z,6.03
2023-11-08T04:41:57.986Z,6.07
2023-11-08T04:46:59.521Z,6.08
2023-11-08T04:52:01.956Z,6.06
2023-11-08T04:57:03.603Z,6.02
2023-11-08T05:02:05.412Z,5.97
2023-11-08T05:07:10.100Z,5.91
2023-11-08T05:12:17.044Z,5.86
2023-11-08T05:17:18.803Z,5.79
2023-11-08T05:22:20.409Z,5.74
2023-11-08T05:27:22.055Z,5.67
2023-11-08T05:32:25.624Z,5.64
2023-11-08T05:37:27.368Z,5.61
2023-11-08T05:42:28.966Z,5.57
2023-11-08T05:47:30.635Z,5.57
2023-11-08T05:52:32.921Z,5.57
2023-11-08T05:57:34.585Z,5.58
2023-11-08T06:02:36.642Z,5.61
2023-11-08T06:07:38.350Z,5.67
2023-11-08T06:12:40.937Z,5.76
2023-11-08T06:17:42.837Z,5.84
2023-11-08T06:22:44.393Z,5.92
2023-11-08T06:27:47.914Z,6.01
2023-11-08T06:32:49.545Z,6.09
2023-11-08T06:37:51.067Z,6.18
2023-11-08T06:42:52.798Z,6.28
2023-11-08T06:47:54.522Z,6.34
2023-11-08T06:52:56.488Z,6.40
2023-11-08T06:57:58.213Z,6.51
2023-11-08T07:02:59.965Z,6.63
2023-11-08T07:08:02.917Z,6.77
2023-11-08T07:13:05.694Z,6.90
2023-11-08T07:18:07.394Z,7.03
2023-11-08T07:23:09.801Z,7.13
2023-11-08T07:28:11.447Z,7.25
2023-11-08T07:33:13.841Z,7.35
2023-11-08T07:38:16.307Z,7.44
2023-11-08T07:43:18.239Z,7.57
2023-11-08T07:48:20.077Z,7.69
2023-11-08T07:53:22.713Z,7.82
2023-11-08T07:58:24.450Z,7.97
2023-11-08T08:03:26.161Z,8.10
2023-11-08T08:08:27.708Z,8.26
2023-11-08T08:13:33.050Z,8.36
2023-11-08T08:18:37.263Z,8.48
2023-11-08T08:23:39.646Z,8.60
2023-11-08T08:28:42.719Z,8.71
2023-11-08T08:33:45.670Z,8.81
2023-11-08T08:38:48.630Z,8.90
2023-11-08T08:43:50.180Z,9.00
2023-11-08T08:48:52.596Z,9.13
2023-11-08T08:53:54.671Z,9.21
2023-11-08T08:58:56.220Z,9.26
2023-11-08T09:03:57.935Z,9.36
2023-11-08T09:08:59.622Z,9.48
2023-11-08T09:14:01.220Z,9.58
2023-11-08T09:19:03.315Z,9.69
2023-11-08T09:24:08.144Z,9.81
2023-11-08T09:29:10.038Z,9.89
2023-11-08T09:34:11.877Z,9.98
2023-11-08T09:39:15.105Z,10.11
2023-11-08T09:44:17.806Z,10.17
2023-11-08T09:49:20.146Z,10.26
2023-11-08T09:54:21.913Z,10.35
2023-11-08T09:59:25.889Z,10.38
2023-11-08T10:04:32.500Z,10.38
2023-11-08T10:09:39.399Z,10.39
2023-11-08T10:14:42.283Z,10.47
2023-11-08T10:19:49.146Z,10.55
2023-11-08T10:25:03.553Z,10.56
2023-11-08T10:30:20.097Z,10.74
2023-11-08T10:35:23.156Z,10.86
2023-11-08T10:40:30.368Z,10.86
2023-11-08T10:45:34.525Z,10.88
2023-11-08T10:50:37.314Z,10.93
2023-11-08T10:55:38.946Z,11.02
2023-11-08T11:00:40.965Z,11.08
2023-11-08T11:05:46.743Z,11.09
2023-11-08T11:10:49.153Z,11.16
2023-11-08T11:16:08.862Z,11.23
2023-11-08T11:21:25.781Z,11.30
2023-11-08T11:26:47.449Z,11.31
2023-11-08T11:31:50.390Z,11.29
2023-11-08T11:37:14.761Z,11.28
2023-11-08T11:42:21.833Z,11.18
2023-11-08T11:47:31.628Z,11.11
2023-11-08T11:52:35.430Z,11.13
2023-11-08T11:57:38.196Z,11.13
2023-11-08T12:02:40.026Z,11.05
2023-11-08T12:07:41.907Z,11.00
2023-11-08T12:12:45.463Z,10.95
2023-11-08T12:17:52.245Z,10.88
2023-11-08T12:22:55.489Z,10.83
2023-11-08T12:27:58.251Z,10.81
2023-11-08T12:33:00.486Z,10.84
2023-11-08T12:38:02.362Z,10.81
2023-11-08T12:43:56.905Z,10.85
2023-11-08T12:48:36.816Z,10.89
2023-11-08T12:53:46.882Z,10.96
2023-11-08T12:58:48.466Z,10.99
2023-11-08T13:03:50.074Z,10.94
2023-11-08T13:08:54.616Z,10.88
2023-11-08T13:13:56.197Z,10.90
2023-11-08T13:18:58.014Z,10.88
2023-11-08T13:24:05.387Z,10.82
2023-11-08T13:29:11.191Z,10.75
2023-11-08T13:34:15.934Z,10.70
2023-11-08T13:39:17.630Z,10.67
2023-11-08T13:44:19.475Z,10.60
2023-11-08T13:49:22.638Z,10.56
2023-11-08T13:54:24.387Z,10.49
2023-11-08T13:59:26.352Z,10.39
2023-11-08T14:04:28.071Z,10.32
2023-11-08T14:09:29.828Z,10.29
2023-11-08T14:14:31.408Z,10.25
2023-11-08T14:19:33.107Z,10.22
2023-11-08T14:24:34.845Z,10.17
2023-11-08T14:29:38.939Z,10.11
2023-11-08T14:34:42.787Z,10.01
2023-11-08T14:39:45.217Z,9.91
2023-11-08T14:44:48.644Z,9.82
2023-11-08T14:49:51.588Z,9.73
2023-11-08T14:54:53.322Z,9.67
2023-11-08T14:59:55.282Z,9.62
2023-11-08T15:04:56.983Z,9.56
2023-11-08T15:10:01.698Z,9.51
2023-11-08T15:15:04.551Z,9.44
2023-11-08T15:20:07.966Z,9.34
2023-11-08T15:25:10.349Z,9.25
2023-11-08T15:30:13.029Z,9.17
2023-11-08T15:35:14.714Z,9.12
2023-11-08T15:40:16.420Z,9.04
2023-11-08T15:45:18.035Z,8.92
2023-11-08T15:50:19.598Z,8.76
2023-11-08T15:55:23.500Z,8.62
2023-11-08T16:00:25.264Z,8.50
2023-11-08T16:05:27.666Z,8.43
2023-11-08T16:10:29.605Z,8.40
2023-11-08T16:15:31.197Z,8.39
2023-11-08T16:20:33.101Z,8.39
2023-11-08T16:25:34.670Z,8.39
2023-11-08T16:31:00.436Z,8.37
2023-11-08T16:36:00.547Z,8.35
2023-11-08T16:41:02.192Z,8.33
2023-11-08T16:46:03.877Z,8.28
2023-11-08T16:51:06.551Z,8.22
2023-11-08T16:56:08.173Z,8.18
2023-11-08T17:01:11.276Z,8.15
2023-11-08T17:06:13.029Z,8.14
2023-11-08T17:11:14.679Z,8.14
2023-11-08T17:16:17.102Z,8.12
2023-11-08T17:21:19.735Z,8.10
2023-11-08T17:26:22.037Z,8.08
2023-11-08T17:31:23.765Z,8.06
2023-11-08T17:36:25.373Z,8.04
2023-11-08T17:41:26.938Z,8.03
2023-11-08T17:46:28.534Z,7.99
2023-11-08T17:51:30.391Z,7.96
2023-11-08T17:56:31.988Z,7.93
2023-11-08T18:01:34.758Z,7.91
2023-11-08T18:06:40.142Z,7.90
2023-11-08T18:11:41.893Z,7.88
2023-11-08T18:16:43.509Z,7.86
2023-11-08T18:21:46.899Z,7.86
2023-11-08T18:26:49.579Z,7.86
2023-11-08T18:31:51.204Z,7.85
2023-11-08T18:36:53.125Z,7.84
2023-11-08T18:41:55.237Z,7.86
2023-11-08T18:46:56.824Z,7.87
2023-11-08T18:51:58.456Z,7.87
2023-11-08T18:57:00.292Z,7.87
2023-11-08T19:02:02.105Z,7.86
2023-11-08T19:07:03.941Z,7.85
2023-11-08T19:12:06.656Z,7.82
2023-11-08T19:17:08.265Z,7.81
2023-11-08T19:22:10.801Z,7.80
2023-11-08T19:27:12.464Z,7.80
2023-11-08T19:32:14.987Z,7.78
2023-11-08T19:37:18.760Z,7.76
2023-11-08T19:42:20.368Z,7.76
2023-11-08T19:47:22.875Z,7.74
2023-11-08T19:52:24.457Z,7.72
2023-11-08T19:57:26.085Z,7.71
2023-11-08T20:02:27.920Z,7.70
2023-11-08T20:07:29.458Z,7.67
2023-11-08T20:12:31.206Z,7.65
2023-11-08T20:17:32.929Z,7.65
2023-11-08T20:22:34.647Z,7.64
2023-11-08T20:27:37.688Z,7.66
2023-11-08T20:32:40.672Z,7.69
2023-11-08T20:37:42.369Z,7.68
2023-11-08T20:42:45.261Z,7.65
2023-11-08T20:47:47.117Z,7.58
2023-11-08T20:52:48.869Z,7.50
2023-11-08T20:57:50.726Z,7.42
2023-11-08T21:02:52.274Z,7.33
2023-11-08T21:07:55.849Z,7.26
2023-11-08T21:12:57.521Z,7.21
2023-11-08T21:17:59.059Z,7.17
2023-11-08T21:23:00.679Z,7.18
2023-11-08T21:28:02.262Z,7.20
2023-11-08T21:33:04.508Z,7.23
2023-11-08T21:38:06.115Z,7.28
2023-11-08T21:43:07.765Z,7.30
2023-11-08T21:48:09.889Z,7.35
2023-11-08T21:53:12.236Z,7.37
2023-11-08T21:58:15.562Z,7.38
2023-11-08T22:03:17.953Z,7.35
2023-11-08T22:08:20.143Z,7.34
2023-11-08T22:13:21.794Z,7.34
2023-11-08T22:18:23.366Z,7.33
2023-11-08T22:23:25.228Z,7.32
2023-11-08T22:28:26.815Z,7.33
2023-11-08T22:33:28.420Z,7.31
2023-11-08T22:38:29.943Z,7.28
2023-11-08T22:43:31.583Z,7.24
2023-11-08T22:48:33.710Z,7.16
2023-11-08T22:53:35.359Z,7.06
2023-11-08T22:58:36.908Z,6.98
2023-11-08T23:03:45.524Z,6.92
2023-11-08T23:08:49.280Z,6.88
2023-11-08T23:13:51.854Z,6.83
2023-11-08T23:18:56.951Z,6.80
2023-11-08T23:24:00.160Z,6.76
2023-11-08T23:29:05.091Z,6.71
2023-11-08T23:34:06.997Z,6.68
2023-11-08T23:39:10.283Z,6.62
2023-11-08T23:44:12.751Z,6.55
2023-11-08T23:49:14.379Z,6.49
2023-11-08T23:54:15.992Z,6.46
2023-11-08T23:59:17.759Z,6.46
